Time;durP1;ratioP1;P1;durP2;ratioP2;P2;SDS_P1;SDS_P2;PMS_P1;PMS_P2;Temp;Humidity;BMP_temperature;BMP_pressure;BME280_temperature;BME280_humidity;BME280_pressure;Samples;Min_cycle;Max_cycle;Signal;HPM_P1;HPM_P2
2023/09/16 00:01:40;;;;;;;;;12.00;10.80;;;;;17.68;100.00;99319.94;6269553;27;96409;-67
2023/09/16 00:04:43;;;;;;;;;12.40;11.60;;;;;17.66;100.00;99325.63;6288177;27;96358;-67
2023/09/16 00:07:47;;;;;;;;;13.60;12.00;;;;;17.60;100.00;99325.81;6286978;27;96345;-67
2023/09/16 00:10:50;;;;;;;;;12.00;11.20;;;;;17.50;100.00;99307.44;6261102;27;96451;-68
2023/09/16 00:13:53;;;;;;;;;12.20;12.00;;;;;17.60;100.00;99320.38;6262958;27;96334;-67
2023/09/16 00:17:00;;;;;;;;;14.20;12.20;;;;;17.59;100.00;99310.56;6227417;27;100158;-67
2023/09/16 00:20:11;;;;;;;;;11.60;10.00;;;;;17.61;100.00;99319.28;6244994;27;96411;-68
2023/09/16 00:23:14;;;;;;;;;13.50;12.00;;;;;17.60;100.00;99313.00;6264755;27;96547;-67
2023/09/16 00:26:18;;;;;;;;;11.20;10.20;;;;;17.57;100.00;99308.06;6262517;27;96361;-67
2023/09/16 00:29:23;;;;;;;;;11.00;10.00;;;;;17.52;100.00;99315.34;6244103;27;97897;-67
2023/09/16 00:32:28;;;;;;;;;16.00;13.00;;;;;17.43;100.00;99312.28;6227158;27;97403;-67
2023/09/16 00:35:32;;;;;;;;;13.20;12.00;;;;;17.38;100.00;99303.22;6261721;27;96411;-67
2023/09/16 00:38:35;;;;;;;;;14.00;12.00;;;;;17.35;100.00;99317.34;6262334;27;96350;-68
2023/09/16 00:41:39;;;;;;;;;14.00;13.00;;;;;17.30;100.00;99318.91;6260397;27;96303;-67
2023/09/16 00:44:42;;;;;;;;;11.00;11.00;;;;;17.10;100.00;99301.53;6244221;27;96625;-67
2023/09/16 00:47:47;;;;;;;;;13.50;12.75;;;;;17.10;100.00;99304.25;6244318;27;97591;-67
2023/09/16 00:50:50;;;;;;;;;11.00;10.00;;;;;16.99;100.00;99303.31;6243538;27;99643;-67
2023/09/16 00:53:55;;;;;;;;;14.80;12.20;;;;;16.87;100.00;99303.41;6261828;27;96680;-67
2023/09/16 00:56:59;;;;;;;;;15.00;13.40;;;;;16.85;100.00;99293.84;6260433;27;96398;-67
2023/09/16 01:00:07;;;;;;;;;13.75;13.75;;;;;16.82;100.00;99297.06;6243908;27;96672;-67
2023/09/16 01:03:12;;;;;;;;;12.80;11.00;;;;;16.71;100.00;99295.31;6243773;27;97078;-67
2023/09/16 01:06:17;;;;;;;;;16.00;13.40;;;;;16.66;100.00;99293.34;6262127;27;96440;-67
2023/09/16 01:09:20;;;;;;;;;12.00;11.00;;;;;16.64;100.00;99289.19;6275468;27;96716;-66
2023/09/16 01:12:24;;;;;;;;;13.00;12.00;;;;;16.63;100.00;99291.09;6258523;27;96435;-67
2023/09/16 01:15:33;;;;;;;;;12.00;11.25;;;;;16.61;100.00;99281.56;6268301;27;96556;-67
2023/09/16 01:18:42;;;;;;;;;13.00;13.00;;;;;16.55;100.00;99277.91;6268262;27;98513;-67
2023/09/16 01:21:46;;;;;;;;;12.00;11.80;;;;;16.57;100.00;99277.63;6268992;27;96461;-67
2023/09/16 01:24:52;;;;;;;;;15.00;14.00;;;;;16.57;100.00;99289.34;6286689;27;96292;-67
2023/09/16 01:27:57;;;;;;;;;11.40;11.00;;;;;16.53;100.00;99292.81;6266002;27;96674;-67
2023/09/16 01:31:02;;;;;;;;;12.00;11.60;;;;;16.50;100.00;99268.84;6261423;27;96374;-67
2023/09/16 01:34:14;;;;;;;;;10.60;9.00;;;;;16.51;100.00;99265.88;6260899;27;96852;-67
2023/09/16 01:37:19;;;;;;;;;13.00;11.60;;;;;16.57;100.00;99273.00;6262004;27;96870;-67
2023/09/16 01:40:24;;;;;;;;;14.40;12.40;;;;;16.57;100.00;99275.72;6254017;27;96675;-67
2023/09/16 01:43:31;;;;;;;;;13.40;12.00;;;;;16.57;100.00;99281.19;6227413;27;98576;-67
2023/09/16 01:46:34;;;;;;;;;12.00;11.00;;;;;16.57;100.00;99281.19;6247492;27;96877;-67
2023/09/16 01:49:37;;;;;;;;;12.00;11.00;;;;;16.58;100.00;99276.56;6286902;27;96390;-67
2023/09/16 01:52:40;;;;;;;;;16.00;12.25;;;;;16.59;100.00;99287.22;6267813;27;96465;-67
2023/09/16 01:55:43;;;;;;;;;12.80;12.40;;;;;16.61;100.00;99287.81;6268420;27;96325;-67
2023/09/16 01:58:48;;;;;;;;;11.00;9.60;;;;;16.62;100.00;99283.16;6259725;27;96476;-67
2023/09/16 02:01:52;;;;;;;;;13.00;11.60;;;;;16.64;100.00;99281.03;6243505;27;96534;-67
2023/09/16 02:04:56;;;;;;;;;10.00;10.00;;;;;16.60;100.00;99269.00;6265453;27;96467;-67
2023/09/16 02:07:59;;;;;;;;;9.25;9.00;;;;;16.51;100.00;99265.88;6264260;27;96405;-67
2023/09/16 02:11:02;;;;;;;;;13.00;12.00;;;;;16.55;100.00;99279.78;6264053;27;96760;-67
2023/09/16 02:14:12;;;;;;;;;12.60;10.60;;;;;16.56;100.00;99278.72;6246288;27;97164;-67
2023/09/16 02:17:16;;;;;;;;;13.40;11.00;;;;;16.56;100.00;99282.28;6264224;27;96575;-67
2023/09/16 02:20:19;;;;;;;;;13.00;12.00;;;;;16.56;100.00;99276.81;6248130;27;96727;-67
2023/09/16 02:23:22;;;;;;;;;12.00;11.60;;;;;16.52;100.00;99281.09;6254827;27;98441;-67
2023/09/16 02:26:25;;;;;;;;;12.00;11.00;;;;;16.53;100.00;99281.94;6290488;27;97735;-67
2023/09/16 02:29:30;;;;;;;;;12.00;12.00;;;;;16.47;100.00;99273.69;6272238;27;96377;-67
2023/09/16 02:32:33;;;;;;;;;13.00;13.00;;;;;16.39;100.00;99271.41;6242561;27;96740;-67
2023/09/16 02:35:39;;;;;;;;;13.25;12.25;;;;;16.42;100.00;99275.50;6228990;27;98433;-67
2023/09/16 02:38:43;;;;;;;;;15.00;12.00;;;;;16.50;100.00;99274.28;6246476;27;96367;-68
2023/09/16 02:41:47;;;;;;;;;13.80;12.00;;;;;16.47;100.00;99272.88;6246562;27;96468;-67
2023/09/16 02:44:52;;;;;;;;;14.50;13.00;;;;;16.49;100.00;99276.16;6264508;27;97004;-67
2023/09/16 02:47:55;;;;;;;;;13.20;10.20;;;;;16.44;100.00;99276.91;6263970;27;96836;-67
2023/09/16 02:50:58;;;;;;;;;13.00;12.80;;;;;16.43;100.00;99277.16;6271232;27;97251;-67
2023/09/16 02:54:01;;;;;;;;;13.60;13.00;;;;;16.37;100.00;99278.97;6289661;27;96327;-67
2023/09/16 02:57:06;;;;;;;;;13.75;12.75;;;;;16.32;100.00;99281.63;6271455;27;97944;-67
2023/09/16 03:00:12;;;;;;;;;13.25;12.00;;;;;16.13;100.00;99261.19;6263048;27;96291;-67
2023/09/16 03:03:15;;;;;;;;;16.00;15.00;;;;;16.25;100.00;99283.72;6261035;27;96389;-67
2023/09/16 03:06:22;;;;;;;;;16.80;16.20;;;;;16.19;100.00;99273.00;6229121;27;96735;-67
2023/09/16 03:09:27;;;;;;;;;14.00;13.50;;;;;16.14;100.00;99276.47;6263698;27;96388;-68
2023/09/16 03:12:31;;;;;;;;;14.20;13.60;;;;;16.13;100.00;99276.69;6246494;27;96936;-67
2023/09/16 03:15:42;;;;;;;;;13.80;12.80;;;;;16.08;100.00;99274.72;6246424;27;97274;-67
2023/09/16 03:18:47;;;;;;;;;15.00;14.00;;;;;16.08;100.00;99276.66;6246192;27;96249;-67
2023/09/16 03:21:50;;;;;;;;;16.00;15.20;;;;;16.04;100.00;99274.41;6248932;27;96677;-67
2023/09/16 03:24:54;;;;;;;;;14.60;13.60;;;;;16.10;100.00;99271.75;6273752;27;97227;-67
2023/09/16 03:27:58;;;;;;;;;17.50;16.50;;;;;16.12;100.00;99275.91;6270828;27;96569;-68
2023/09/16 03:31:03;;;;;;;;;15.00;14.00;;;;;16.09;100.00;99272.81;6289230;27;96459;-67
2023/09/16 03:34:06;;;;;;;;;16.40;15.40;;;;;16.03;100.00;99274.63;6269734;27;96283;-67
2023/09/16 03:37:09;;;;;;;;;13.50;13.00;;;;;15.99;100.00;99278.94;6228553;27;99726;-67
2023/09/16 03:40:13;;;;;;;;;16.00;15.40;;;;;15.99;100.00;99276.22;6258450;27;96436;-67
2023/09/16 03:43:16;;;;;;;;;16.75;16.00;;;;;15.99;100.00;99265.34;6229090;27;97130;-67
2023/09/16 03:46:21;;;;;;;;;17.00;16.60;;;;;16.00;100.00;99270.53;6245759;27;96626;-67
2023/09/16 03:49:24;;;;;;;;;17.00;16.50;;;;;16.00;100.00;99264.25;6266853;27;96479;-67
2023/09/16 03:52:27;;;;;;;;;16.00;13.00;;;;;15.98;100.00;99269.13;6244137;27;96778;-67
2023/09/16 03:55:31;;;;;;;;;16.40;15.40;;;;;16.01;100.00;99276.81;6289062;27;96892;-67
2023/09/16 03:58:34;;;;;;;;;15.00;14.00;;;;;15.96;100.00;99280.25;6269816;27;96644;-67
2023/09/16 04:01:39;;;;;;;;;15.50;14.50;;;;;15.83;100.00;99271.63;6266632;27;97196;-67
2023/09/16 04:04:42;;;;;;;;;16.00;13.80;;;;;15.91;100.00;99280.19;6262829;27;96351;-67
2023/09/16 04:07:46;;;;;;;;;15.80;14.20;;;;;15.88;100.00;99274.41;6278120;27;96463;-67
2023/09/16 04:10:49;;;;;;;;;16.40;15.00;;;;;15.87;100.00;99265.44;6260542;27;96608;-67
2023/09/16 04:13:52;;;;;;;;;19.40;17.00;;;;;15.89;100.00;99274.16;6227294;27;96736;-67
2023/09/16 04:16:56;;;;;;;;;15.00;13.00;;;;;15.91;100.00;99273.91;6267059;27;96332;-67
2023/09/16 04:20:05;;;;;;;;;13.40;12.40;;;;;15.97;100.00;99272.94;6251550;27;99158;-67
2023/09/16 04:23:09;;;;;;;;;16.00;14.00;;;;;15.95;100.00;99269.63;6255442;27;96668;-67
2023/09/16 04:26:15;;;;;;;;;19.00;17.40;;;;;15.97;100.00;99265.59;6261782;27;96346;-66
2023/09/16 04:29:20;;;;;;;;;19.60;17.00;;;;;15.98;100.00;99263.69;6246145;27;96357;-67
2023/09/16 04:32:25;;;;;;;;;16.00;15.00;;;;;15.89;100.00;99259.72;6268262;27;96955;-67
2023/09/16 04:35:29;;;;;;;;;14.40;11.00;;;;;15.97;100.00;99259.34;6258774;27;96490;-67
2023/09/16 04:38:32;;;;;;;;;16.60;15.60;;;;;15.91;100.00;99236.66;6241886;27;99052;-67
2023/09/16 04:41:35;;;;;;;;;16.40;15.00;;;;;15.91;100.00;99249.44;6261923;27;96224;-67
2023/09/16 04:44:40;;;;;;;;;15.60;12.60;;;;;16.04;100.00;99254.53;6269531;27;96280;-67
2023/09/16 04:47:45;;;;;;;;;15.60;14.60;;;;;16.15;100.00;99260.97;6269368;27;96388;-67
2023/09/16 04:50:50;;;;;;;;;13.00;12.00;;;;;16.17;100.00;99253.38;6260679;27;96930;-67
2023/09/16 04:53:55;;;;;;;;;15.20;15.20;;;;;16.16;100.00;99260.72;6268589;27;96080;-67
2023/09/16 04:57:00;;;;;;;;;19.40;18.00;;;;;16.24;100.00;99254.84;6267695;27;96330;-67
2023/09/16 05:00:06;;;;;;;;;17.40;16.00;;;;;16.23;100.00;99258.63;6246163;27;96738;-67
2023/09/16 05:03:10;;;;;;;;;18.50;17.00;;;;;16.20;100.00;99261.88;6265879;27;96338;-67
2023/09/16 05:06:14;;;;;;;;;21.00;19.40;;;;;16.25;100.00;99261.13;6257790;27;96400;-67
2023/09/16 05:09:17;;;;;;;;;22.00;17.60;;;;;16.26;100.00;99266.31;6249567;27;96418;-67
2023/09/16 05:12:20;;;;;;;;;22.00;21.20;;;;;16.30;100.00;99272.91;6265700;27;96493;-67
2023/09/16 05:15:23;;;;;;;;;19.00;18.00;;;;;16.33;100.00;99275.13;6244125;27;98446;-67
2023/09/16 05:18:28;;;;;;;;;19.50;17.75;;;;;16.39;100.00;99268.69;6256061;27;96306;-67
2023/09/16 05:21:31;;;;;;;;;19.40;18.00;;;;;16.47;100.00;99273.69;6249789;27;96563;-67
2023/09/16 05:24:35;;;;;;;;;18.00;16.40;;;;;16.53;100.00;99266.44;6230547;27;97302;-67
2023/09/16 05:27:39;;;;;;;;;19.40;17.40;;;;;16.60;100.00;99275.28;6258963;27;96536;-67
2023/09/16 05:30:43;;;;;;;;;18.00;16.00;;;;;16.59;100.00;99256.47;6240051;27;98530;-67
2023/09/16 05:33:48;;;;;;;;;17.00;16.00;;;;;16.60;100.00;99264.38;6263508;27;96275;-67
2023/09/16 05:36:51;;;;;;;;;14.33;13.33;;;;;16.52;100.00;99264.78;6250522;27;98521;-67
2023/09/16 05:39:56;;;;;;;;;16.00;14.40;;;;;16.52;100.00;99274.88;6233833;27;96694;-66
2023/09/16 05:42:59;;;;;;;;;14.20;13.20;;;;;16.42;100.00;99276.34;6248013;27;96735;-67
2023/09/16 05:46:03;;;;;;;;;15.00;13.80;;;;;16.48;100.00;99278.06;6252681;27;96495;-67
2023/09/16 05:49:09;;;;;;;;;14.00;13.00;;;;;16.34;100.00;99274.06;6271842;27;97088;-67
2023/09/16 05:52:13;;;;;;;;;15.00;13.00;;;;;16.48;100.00;99266.34;6263557;27;96670;-66
2023/09/16 05:55:17;;;;;;;;;16.60;15.00;;;;;16.54;100.00;99262.63;6250453;27;96470;-67
2023/09/16 05:58:21;;;;;;;;;15.00;14.40;;;;;16.62;100.00;99269.56;6268651;27;96491;-67
2023/09/16 06:01:25;;;;;;;;;15.00;14.00;;;;;16.49;100.00;99273.44;6256451;27;96843;-67
2023/09/16 06:04:30;;;;;;;;;13.00;12.00;;;;;16.65;100.00;99269.06;6270680;27;96932;-67
2023/09/16 06:07:34;;;;;;;;;14.00;13.00;;;;;16.69;100.00;99264.78;6270398;27;96439;-67
2023/09/16 06:10:37;;;;;;;;;12.40;11.40;;;;;16.71;100.00;99268.88;6271484;27;96359;-67
2023/09/16 06:13:40;;;;;;;;;15.40;12.40;;;;;16.77;100.00;99272.50;6252567;27;98561;-67
2023/09/16 06:16:44;;;;;;;;;11.00;10.00;;;;;16.74;100.00;99278.44;6242573;27;97778;-67
2023/09/16 06:19:51;;;;;;;;;9.50;9.50;;;;;16.80;100.00;99278.28;6246608;27;96743;-67
2023/09/16 06:22:57;;;;;;;;;10.00;9.00;;;;;16.71;100.00;99262.63;6245946;27;98569;-67
2023/09/16 06:26:00;;;;;;;;;13.00;11.75;;;;;16.86;100.00;99269.06;6262802;27;96923;-67
2023/09/16 06:29:04;;;;;;;;;10.00;9.67;;;;;16.98;100.00;99279.03;6258604;27;96796;-67
2023/09/16 06:32:08;;;;;;;;;12.00;12.00;;;;;17.01;100.00;99282.06;6264119;27;96596;-67
2023/09/16 06:35:13;;;;;;;;;14.80;14.00;;;;;17.13;100.00;99287.38;6242774;27;98899;-67
2023/09/16 06:38:16;;;;;;;;;16.60;13.00;;;;;17.24;100.00;99279.09;6266330;27;96925;-65
2023/09/16 06:41:20;;;;;;;;;15.80;14.40;;;;;17.14;100.00;99286.31;6232542;27;97275;-67
2023/09/16 06:44:23;;;;;;;;;15.60;14.00;;;;;17.27;100.00;99275.84;6245430;27;96604;-66
2023/09/16 06:47:27;;;;;;;;;17.60;16.00;;;;;17.45;100.00;99274.66;6265922;27;96361;-67
2023/09/16 06:50:32;;;;;;;;;13.00;13.00;;;;;17.59;100.00;99275.91;6270577;27;96681;-66
2023/09/16 06:53:36;;;;;;;;;12.75;11.75;;;;;17.70;100.00;99282.31;6255370;27;96612;-67
2023/09/16 06:56:39;;;;;;;;;16.40;14.80;;;;;17.75;100.00;99280.44;6264870;27;97244;-67
2023/09/16 06:59:46;;;;;;;;;13.40;13.00;;;;;17.72;100.00;99271.97;6275925;27;96739;-67
2023/09/16 07:02:50;;;;;;;;;14.50;12.00;;;;;17.86;100.00;99281.38;6273189;27;96421;-67
2023/09/16 07:05:55;;;;;;;;;15.60;14.20;;;;;17.88;100.00;99281.94;6264822;27;96733;-67
2023/09/16 07:08:58;;;;;;;;;18.00;15.00;;;;;17.91;100.00;99288.78;6260593;27;98190;-67
2023/09/16 07:12:02;;;;;;;;;16.00;15.00;;;;;17.89;100.00;99294.47;6267200;27;96988;-66
2023/09/16 07:15:06;;;;;;;;;18.00;16.50;;;;;17.91;100.00;99294.22;6256390;27;97332;-67
2023/09/16 07:18:09;;;;;;;;;15.00;12.00;;;;;18.00;100.00;99300.84;6270827;27;98540;-67
2023/09/16 07:21:13;;;;;;;;;15.40;14.40;;;;;18.00;100.00;99298.13;6289363;27;96264;-67
2023/09/16 07:24:16;;;;;;;;;16.20;15.40;;;;;18.14;100.00;99302.88;6270439;27;97296;-67
2023/09/16 07:27:20;;;;;;;;;17.00;16.00;;;;;18.07;100.00;99304.19;6261041;27;96484;-67
2023/09/16 07:30:23;;;;;;;;;15.40;14.00;;;;;18.19;100.00;99293.91;6261489;27;96607;-67
2023/09/16 07:33:27;;;;;;;;;16.00;15.00;;;;;18.30;100.00;99295.63;6262307;27;97781;-67
2023/09/16 07:36:32;;;;;;;;;17.00;16.00;;;;;18.31;100.00;99299.19;6261709;27;97232;-67
2023/09/16 07:39:35;;;;;;;;;15.00;15.00;;;;;18.49;100.00;99305.06;6273610;27;96618;-67
2023/09/16 07:42:38;;;;;;;;;19.75;16.25;;;;;18.83;100.00;99288.34;6256266;27;97739;-67
2023/09/16 07:45:42;;;;;;;;;18.00;17.40;;;;;19.04;100.00;99299.13;6274554;27;96637;-67
2023/09/16 07:48:45;;;;;;;;;15.00;13.40;;;;;19.33;100.00;99310.44;6271070;27;96733;-67
2023/09/16 07:51:50;;;;;;;;;19.00;16.00;;;;;19.40;100.00;99302.00;6227435;27;98379;-67
2023/09/16 07:54:55;;;;;;;;;12.33;11.33;;;;;19.25;100.00;99301.94;6227013;27;97142;-67
2023/09/16 07:57:59;;;;;;;;;14.00;12.00;;;;;19.17;100.00;99300.53;6237123;27;98038;-67
2023/09/16 08:01:02;;;;;;;;;20.25;17.00;;;;;19.29;100.00;99303.03;6254028;27;96769;-67
2023/09/16 08:04:05;;;;;;;;;13.00;12.00;;;;;19.23;100.00;99298.63;6243246;27;98624;-67
2023/09/16 08:07:10;;;;;;;;;16.00;15.00;;;;;19.45;100.00;99307.47;6268378;27;97191;-67
2023/09/16 08:10:14;;;;;;;;;13.00;12.00;;;;;19.35;100.00;99307.44;6252796;27;96732;-67
2023/09/16 08:13:18;;;;;;;;;16.40;14.40;;;;;19.33;100.00;99315.06;6238332;27;96793;-67
2023/09/16 08:16:21;;;;;;;;;15.50;14.50;;;;;19.17;100.00;99311.47;6262958;27;96789;-68
2023/09/16 08:19:25;;;;;;;;;16.00;14.00;;;;;19.00;100.00;99306.22;6232907;27;97087;-68
2023/09/16 08:22:30;;;;;;;;;17.00;15.00;;;;;19.27;100.00;99316.13;6245740;27;96851;-68
2023/09/16 08:25:33;;;;;;;;;13.40;13.00;;;;;19.40;100.00;99305.50;6256116;27;96452;-67
2023/09/16 08:28:37;;;;;;;;;16.80;15.80;;;;;19.46;100.00;99306.38;6275220;27;96412;-67
2023/09/16 08:31:40;;;;;;;;;14.60;14.60;;;;;19.59;100.00;99324.22;6256116;27;96267;-67
2023/09/16 08:34:43;;;;;;;;;16.50;15.00;;;;;19.60;100.00;99321.19;6274827;27;97484;-67
2023/09/16 08:37:48;;;;;;;;;16.00;15.00;;;;;19.62;100.00;99319.03;6256665;27;96382;-67
2023/09/16 08:40:57;;;;;;;;;14.60;13.00;;;;;19.57;100.00;99320.91;6264534;27;96278;-67
2023/09/16 08:44:05;;;;;;;;;18.00;16.00;;;;;19.72;100.00;99315.47;6246636;27;96524;-68
2023/09/16 08:47:15;;;;;;;;;15.80;14.80;;;;;19.75;100.00;99309.47;6265044;27;96770;-67
2023/09/16 08:50:22;;;;;;;;;12.60;11.60;;;;;20.35;100.00;99318.84;6274232;27;96285;-66
2023/09/16 08:53:30;;;;;;;;;14.60;14.00;;;;;20.71;100.00;99326.75;6267622;27;97139;-67
2023/09/16 08:56:34;;;;;;;;;16.00;13.00;;;;;21.23;100.00;99328.25;6276323;27;96764;-67
2023/09/16 08:59:38;;;;;;;;;14.40;12.00;;;;;21.68;100.00;99323.66;6272020;27;96323;-68
2023/09/16 09:02:42;;;;;;;;;14.00;13.00;;;;;21.96;100.00;99328.44;6258199;27;96661;-67
2023/09/16 09:05:46;;;;;;;;;14.00;13.00;;;;;21.78;100.00;99327.16;6285476;27;96444;-67
2023/09/16 09:08:50;;;;;;;;;15.80;14.00;;;;;21.92;100.00;99332.81;6235164;27;99067;-68
2023/09/16 09:11:55;;;;;;;;;12.60;12.60;;;;;22.15;100.00;99323.88;6245649;27;97264;-68
2023/09/16 09:15:01;;;;;;;;;14.00;13.40;;;;;22.75;100.00;99319.81;6268549;27;96868;-68
2023/09/16 09:18:07;;;;;;;;;15.00;13.00;;;;;23.69;100.00;99314.56;6258494;27;96705;-68
2023/09/16 09:21:11;;;;;;;;;12.20;11.80;;;;;24.44;100.00;99319.97;6250983;27;97497;-68
2023/09/16 09:24:16;;;;;;;;;11.00;10.40;;;;;25.60;100.00;99314.19;6259517;27;97259;-67
2023/09/16 09:27:19;;;;;;;;;10.20;9.00;;;;;25.85;100.00;99314.41;6252878;27;97360;-68
2023/09/16 09:30:26;;;;;;;;;11.00;10.00;;;;;26.44;100.00;99317.97;6255522;27;98968;-68
2023/09/16 09:33:30;;;;;;;;;12.60;11.60;;;;;27.07;100.00;99316.88;6278776;27;96720;-67
2023/09/16 09:36:35;;;;;;;;;13.40;12.40;;;;;27.52;100.00;99318.34;6247048;27;98714;-68
2023/09/16 09:39:40;;;;;;;;;12.80;12.00;;;;;28.07;100.00;99309.41;6261677;27;96863;-68
2023/09/16 09:42:44;;;;;;;;;11.00;11.00;;;;;28.73;100.00;99307.25;6282634;27;96389;-68
2023/09/16 09:45:47;;;;;;;;;12.60;12.00;;;;;29.25;100.00;99300.34;6285083;27;98307;-68
2023/09/16 09:48:51;;;;;;;;;10.00;9.40;;;;;29.79;100.00;99292.16;6263949;27;97910;-68
2023/09/16 09:51:54;;;;;;;;;12.00;10.00;;;;;30.16;100.00;99300.69;6270722;27;96664;-68
2023/09/16 09:55:00;;;;;;;;;10.00;9.00;;;;;30.06;100.00;99296.38;6283231;27;96407;-68
2023/09/16 09:58:07;;;;;;;;;11.00;10.00;;;;;30.28;100.00;99293.25;6256505;27;97488;-68
2023/09/16 10:01:11;;;;;;;;;10.25;9.00;;;;;30.61;100.00;99296.03;6270080;27;96430;-68
2023/09/16 10:04:15;;;;;;;;;9.00;8.60;;;;;30.83;100.00;99287.28;6244627;27;97734;-68
2023/09/16 10:07:18;;;;;;;;;9.00;8.50;;;;;31.09;100.00;99297.28;6253204;27;98627;-68
2023/09/16 10:10:25;;;;;;;;;9.60;8.60;;;;;31.52;100.00;99291.13;6263004;27;96396;-68
2023/09/16 10:13:30;;;;;;;;;9.50;8.25;;;;;32.00;98.27;99285.47;6272835;27;97620;-68
2023/09/16 10:16:34;;;;;;;;;8.67;8.67;;;;;31.64;98.09;99275.22;6273263;27;97697;-68
2023/09/16 10:19:37;;;;;;;;;11.00;10.00;;;;;31.69;98.74;99286.13;6279987;27;96645;-69
2023/09/16 10:22:41;;;;;;;;;10.80;10.00;;;;;31.17;100.00;99276.88;6255602;27;97667;-68
2023/09/16 10:25:45;;;;;;;;;10.00;9.40;;;;;30.90;100.00;99272.75;6260456;27;98178;-69
2023/09/16 10:28:52;;;;;;;;;9.00;8.00;;;;;31.21;100.00;99275.00;6275101;27;96573;-68
2023/09/16 10:31:56;;;;;;;;;11.33;11.00;;;;;31.64;100.00;99268.81;6269631;27;96770;-68
2023/09/16 10:35:02;;;;;;;;;10.40;8.00;;;;;32.00;100.00;99265.94;6267968;27;97271;-69
2023/09/16 10:38:07;;;;;;;;;10.00;10.00;;;;;32.13;99.75;99263.94;6259284;27;98276;-68
2023/09/16 10:41:15;;;;;;;;;11.67;11.67;;;;;32.49;100.00;99260.16;6279099;27;96809;-68
2023/09/16 10:44:20;;;;;;;;;11.00;10.40;;;;;32.31;98.99;99259.66;6275234;27;96687;-68
2023/09/16 10:47:24;;;;;;;;;12.20;11.00;;;;;32.24;99.47;99243.53;6235289;27;99730;-68
2023/09/16 10:50:30;;;;;;;;;12.00;11.40;;;;;32.09;100.00;99252.66;6250078;27;96814;-68
2023/09/16 10:53:36;;;;;;;;;11.50;10.50;;;;;32.18;100.00;99247.75;6280092;27;97385;-68
2023/09/16 10:56:44;;;;;;;;;10.40;10.00;;;;;32.54;100.00;99249.53;6255312;27;96930;-68
2023/09/16 10:59:52;;;;;;;;;10.75;8.75;;;;;32.82;100.00;99243.06;6275349;27;96377;-68
2023/09/16 11:02:59;;;;;;;;;10.60;10.00;;;;;33.05;98.11;99244.03;6273163;27;96849;-68
2023/09/16 11:06:05;;;;;;;;;9.80;9.00;;;;;33.43;97.47;99233.00;6241994;27;96926;-67
2023/09/16 11:09:09;;;;;;;;;10.40;10.00;;;;;33.81;94.44;99228.66;6269060;27;97461;-67
2023/09/16 11:12:14;;;;;;;;;9.50;9.50;;;;;34.08;92.33;99235.19;6260843;27;97457;-67
2023/09/16 11:15:17;;;;;;;;;11.60;10.00;;;;;34.25;95.12;99238.38;6261777;27;97068;-67
2023/09/16 11:18:21;;;;;;;;;9.00;9.00;;;;;34.55;94.20;99221.72;6279651;27;97409;-66
2023/09/16 11:21:25;;;;;;;;;11.20;10.20;;;;;34.87;91.67;99219.50;6261939;27;96613;-67
2023/09/16 11:24:29;;;;;;;;;8.00;8.00;;;;;35.03;90.12;99222.97;6268365;27;98481;-67
2023/09/16 11:27:35;;;;;;;;;9.75;7.75;;;;;35.27;89.23;99213.34;6273228;27;96700;-67
2023/09/16 11:30:39;;;;;;;;;10.20;10.20;;;;;35.23;90.45;99215.31;6266017;27;97772;-67
2023/09/16 11:33:45;;;;;;;;;9.80;8.80;;;;;35.36;90.23;99210.28;6276846;27;97749;-67
2023/09/16 11:36:51;;;;;;;;;9.20;9.00;;;;;35.39;88.72;99201.91;6275166;27;97389;-67
2023/09/16 11:39:55;;;;;;;;;11.00;11.00;;;;;35.37;89.76;99206.28;6269526;27;97523;-68
2023/09/16 11:43:00;;;;;;;;;13.00;11.40;;;;;35.05;88.47;99200.16;6274896;27;96266;-68
2023/09/16 11:46:05;;;;;;;;;12.40;11.00;;;;;35.04;91.61;99202.16;6265544;27;97021;-68
2023/09/16 11:49:08;;;;;;;;;12.00;12.00;;;;;35.08;91.29;99193.81;6259130;27;96954;-67
2023/09/16 11:52:11;;;;;;;;;11.00;10.00;;;;;35.35;91.09;99191.81;6250187;27;97229;-67
2023/09/16 11:55:15;;;;;;;;;10.60;10.00;;;;;35.34;91.86;99193.00;6261787;27;96540;-67
2023/09/16 11:58:21;;;;;;;;;15.20;12.80;;;;;35.64;89.58;99191.81;6278322;27;96500;-67
2023/09/16 12:01:28;;;;;;;;;11.00;10.00;;;;;35.75;87.15;99180.78;6247801;27;96779;-68
2023/09/16 12:04:34;;;;;;;;;12.00;12.00;;;;;35.60;89.49;99174.16;6271313;27;97188;-69
2023/09/16 12:07:38;;;;;;;;;11.00;10.20;;;;;35.58;92.96;99187.75;6263584;27;97996;-70
2023/09/16 12:10:41;;;;;;;;;9.00;9.00;;;;;35.34;88.53;99164.97;6252203;27;96673;-70
2023/09/16 12:13:46;;;;;;;;;11.00;10.00;;;;;34.99;90.92;99182.09;6262664;27;97800;-70
2023/09/16 12:16:52;;;;;;;;;15.40;15.40;;;;;34.72;93.75;99181.25;6251253;27;97146;-68
2023/09/16 12:19:57;;;;;;;;;9.40;8.40;;;;;34.72;95.64;99172.84;6280362;27;97324;-68
2023/09/16 12:23:00;;;;;;;;;10.00;9.60;;;;;34.53;93.06;99168.09;6266931;27;97709;-68
2023/09/16 12:26:04;;;;;;;;;13.00;11.00;;;;;34.39;99.20;99158.66;6263927;27;98939;-68
2023/09/16 12:29:08;;;;;;;;;10.00;10.00;;;;;34.21;99.35;99155.53;6281237;27;96591;-68
2023/09/16 12:32:14;;;;;;;;;10.20;9.00;;;;;34.46;100.00;99153.97;6269145;27;96450;-68
2023/09/16 12:35:17;;;;;;;;;9.00;9.00;;;;;34.31;100.00;99105.31;6284591;27;96590;-68
2023/09/16 12:38:21;;;;;;;;;9.00;8.00;;;;;34.41;99.51;99143.09;6263334;27;96937;-68
2023/09/16 12:41:26;;;;;;;;;7.60;7.60;;;;;34.28;100.00;99139.69;6263239;27;96925;-68
2023/09/16 12:44:32;;;;;;;;;9.00;9.00;;;;;33.86;100.00;99131.28;6280916;27;96899;-68
2023/09/16 12:47:36;;;;;;;;;9.00;8.60;;;;;33.80;100.00;99134.75;6287020;27;96218;-68
2023/09/16 12:50:40;;;;;;;;;10.00;9.33;;;;;33.62;100.00;99130.78;6249527;27;98770;-68
2023/09/16 12:53:44;;;;;;;;;7.00;7.00;;;;;33.22;100.00;99126.34;6266463;27;96938;-68
2023/09/16 12:56:48;;;;;;;;;8.00;7.00;;;;;33.03;100.00;99115.13;6267260;27;99388;-68
2023/09/16 13:00:03;;;;;;;;;8.50;8.50;;;;;33.07;100.00;99113.19;6260404;27;97551;-68
2023/09/16 13:03:07;;;;;;;;;6.00;6.00;;;;;32.39;100.00;99109.97;6280958;27;96329;-68
2023/09/16 13:06:10;;;;;;;;;6.25;6.25;;;;;32.21;100.00;99115.09;6262477;27;96571;-68
2023/09/16 13:09:14;;;;;;;;;6.80;6.80;;;;;31.52;100.00;99115.56;6246947;27;98475;-67
2023/09/16 13:12:17;;;;;;;;;9.00;8.20;;;;;31.31;100.00;99121.31;6278573;27;96510;-67
2023/09/16 13:15:24;;;;;;;;;7.75;7.50;;;;;31.50;100.00;99109.50;6260251;27;97070;-68
2023/09/16 13:18:27;;;;;;;;;9.80;9.00;;;;;31.66;100.00;99096.47;6242346;27;96870;-67
2023/09/16 13:21:32;;;;;;;;;9.25;9.00;;;;;31.83;100.00;99104.50;6273327;27;96365;-68
2023/09/16 13:24:43;;;;;;;;;8.20;7.60;;;;;31.88;100.00;99106.22;6254324;27;96387;-68
2023/09/16 13:27:46;;;;;;;;;8.00;6.75;;;;;32.02;100.00;99103.78;6257367;27;96480;-68
2023/09/16 13:30:54;;;;;;;;;11.00;11.00;;;;;32.31;100.00;99103.38;6261816;27;96435;-68
2023/09/16 13:34:00;;;;;;;;;10.00;9.25;;;;;32.48;100.00;99094.66;6260210;27;96618;-67
2023/09/16 13:37:04;;;;;;;;;9.00;7.00;;;;;32.56;100.00;99096.44;6263855;27;96394;-67
2023/09/16 13:40:10;;;;;;;;;11.00;9.00;;;;;32.34;100.00;99107.44;6282335;27;96498;-67
2023/09/16 13:43:13;;;;;;;;;11.00;9.40;;;;;32.16;100.00;99053.97;6284717;27;97558;-67
2023/09/16 13:46:19;;;;;;;;;9.00;8.00;;;;;32.44;100.00;99092.94;6249044;27;98562;-67
2023/09/16 13:49:22;;;;;;;;;9.00;8.60;;;;;32.23;100.00;99096.00;6272891;27;98309;-67
2023/09/16 13:52:25;;;;;;;;;10.00;9.00;;;;;31.74;100.00;99101.88;6259180;27;96652;-68
2023/09/16 13:55:28;;;;;;;;;11.00;9.00;;;;;31.55;100.00;99084.19;6255159;27;96453;-68
2023/09/16 13:58:33;;;;;;;;;12.00;10.00;;;;;31.44;100.00;99086.66;6268590;27;96980;-67
2023/09/16 14:01:38;;;;;;;;;9.25;8.25;;;;;31.65;100.00;99087.28;6264136;27;96410;-67